sensor_id;sensor_type;location;lat;lon;timestamp;pressure;altitude;pressure_sealevel;temperature;humidity
37420;BME280;47344;52.374;4.816;2023-02-08T00:01:18;103920.0;;;0.85;98.68
37420;BME280;47344;52.374;4.816;2023-02-08T00:02:55;103920.0;;;0.72;98.94
37420;BME280;47344;52.374;4.816;2023-02-08T00:04:31;103921.0;;;0.89;98.67
37420;BME280;47344;52.374;4.816;2023-02-08T00:07:44;103918.0;;;0.97;98.19
37420;BME280;47344;52.374;4.816;2023-02-08T00:09:20;103919.0;;;0.86;97.75
37420;BME280;47344;52.374;4.816;2023-02-08T00:10:57;103916.00000000001;;;0.86;97.91
37420;BME280;47344;52.374;4.816;2023-02-08T00:14:10;103919.0;;;1.03;97.53
37420;BME280;47344;52.374;4.816;2023-02-08T00:15:46;103914.00000000001;;;0.86;97.59
37420;BME280;47344;52.374;4.816;2023-02-08T00:17:22;103905.0;;;0.65;97.73
37420;BME280;47344;52.374;4.816;2023-02-08T00:18:58;103908.0;;;0.66;98.32
37420;BME280;47344;52.374;4.816;2023-02-08T00:22:13;103904.0;;;0.71;98.7
37420;BME280;47344;52.374;4.816;2023-02-08T00:23:50;103897.0;;;0.83;97.92
37420;BME280;47344;52.374;4.816;2023-02-08T00:25:25;103894.0;;;0.67;98.2
37420;BME280;47344;52.374;4.816;2023-02-08T00:28:38;103890.00000000001;;;0.66;98.59
37420;BME280;47344;52.374;4.816;2023-02-08T00:31:50;103889.00000000001;;;0.62;99.18
37420;BME280;47344;52.374;4.816;2023-02-08T00:35:02;103886.99999999999;;;0.83;97.94
37420;BME280;47344;52.374;4.816;2023-02-08T00:36:39;103883.99999999999;;;0.66;98.12
37420;BME280;47344;52.374;4.816;2023-02-08T00:38:14;103895.0;;;0.73;97.9
37420;BME280;47344;52.374;4.816;2023-02-08T00:39:51;103893.0;;;0.61;98.35
37420;BME280;47344;52.374;4.816;2023-02-08T00:43:03;103892.0;;;0.77;97.89
37420;BME280;47344;52.374;4.816;2023-02-08T00:44:39;103897.0;;;0.81;97.18
37420;BME280;47344;52.374;4.816;2023-02-08T00:46:15;103902.0;;;0.78;97.3
37420;BME280;47344;52.374;4.816;2023-02-08T00:49:27;103894.0;;;0.74;97.49
37420;BME280;47344;52.374;4.816;2023-02-08T00:51:06;103898.0;;;0.72;98.0
37420;BME280;47344;52.374;4.816;2023-02-08T00:52:43;103899.0;;;0.82;97.0
37420;BME280;47344;52.374;4.816;2023-02-08T00:55:56;103904.0;;;0.68;97.15
37420;BME280;47344;52.374;4.816;2023-02-08T00:57:33;103904.0;;;0.68;97.05
37420;BME280;47344;52.374;4.816;2023-02-08T00:59:11;103907.0;;;0.69;97.17
37420;BME280;47344;52.374;4.816;2023-02-08T01:00:49;103906.0;;;0.65;97.43
37420;BME280;47344;52.374;4.816;2023-02-08T01:04:04;103906.0;;;0.56;97.66
37420;BME280;47344;52.374;4.816;2023-02-08T01:05:41;103908.0;;;0.45;98.0
37420;BME280;47344;52.374;4.816;2023-02-08T01:07:17;103908.0;;;0.54;98.32
37420;BME280;47344;52.374;4.816;2023-02-08T01:10:31;103908.99999999999;;;0.65;97.62
37420;BME280;47344;52.374;4.816;2023-02-08T01:12:08;103909.99999999999;;;0.51;98.06
37420;BME280;47344;52.374;4.816;2023-02-08T01:13:46;103915.00000000001;;;0.42;98.23
37420;BME280;47344;52.374;4.816;2023-02-08T01:16:59;103907.0;;;0.42;98.62
37420;BME280;47344;52.374;4.816;2023-02-08T01:18:35;103904.0;;;0.38;98.12
37420;BME280;47344;52.374;4.816;2023-02-08T01:20:12;103901.0;;;0.37;98.37
37420;BME280;47344;52.374;4.816;2023-02-08T01:21:48;103899.0;;;0.34;99.06
37420;BME280;47344;52.374;4.816;2023-02-08T01:25:00;103903.0;;;0.48;98.4
37420;BME280;47344;52.374;4.816;2023-02-08T01:26:37;103906.0;;;0.39;98.72
37420;BME280;47344;52.374;4.816;2023-02-08T01:28:14;103901.0;;;0.45;98.73
37420;BME280;47344;52.374;4.816;2023-02-08T01:31:30;103902.0;;;0.38;98.91
37420;BME280;47344;52.374;4.816;2023-02-08T01:33:07;103896.0;;;0.31;99.03
37420;BME280;47344;52.374;4.816;2023-02-08T01:34:43;103889.00000000001;;;0.3;99.41
37420;BME280;47344;52.374;4.816;2023-02-08T01:37:57;103893.0;;;0.43;99.02
37420;BME280;47344;52.374;4.816;2023-02-08T01:39:33;103895.0;;;0.32;99.29
37420;BME280;47344;52.374;4.816;2023-02-08T01:41:14;103892.0;;;0.38;98.74
37420;BME280;47344;52.374;4.816;2023-02-08T01:42:51;103893.0;;;0.39;98.61
37420;BME280;47344;52.374;4.816;2023-02-08T01:47:07;103891.00000000001;;;0.47;98.21
37420;BME280;47344;52.374;4.816;2023-02-08T01:50:22;103881.0;;;0.43;98.66
37420;BME280;47344;52.374;4.816;2023-02-08T01:52:05;103879.0;;;0.36;98.6
37420;BME280;47344;52.374;4.816;2023-02-08T01:53:44;103881.0;;;0.33;99.18
37420;BME280;47344;52.374;4.816;2023-02-08T01:55:25;103879.0;;;0.47;99.1
37420;BME280;47344;52.374;4.816;2023-02-08T01:58:45;103876.0;;;0.49;98.6
37420;BME280;47344;52.374;4.816;2023-02-08T02:00:31;103875.0;;;0.32;98.59
37420;BME280;47344;52.374;4.816;2023-02-08T02:02:10;103878.0;;;0.39;98.76
37420;BME280;47344;52.374;4.816;2023-02-08T02:03:49;103871.0;;;0.39;98.77
37420;BME280;47344;52.374;4.816;2023-02-08T02:07:09;103874.0;;;0.38;98.25
37420;BME280;47344;52.374;4.816;2023-02-08T02:08:52;103876.0;;;0.59;97.77
37420;BME280;47344;52.374;4.816;2023-02-08T02:10:33;103865.00000000001;;;0.56;97.4
37420;BME280;47344;52.374;4.816;2023-02-08T02:12:11;103869.0;;;0.49;97.51
37420;BME280;47344;52.374;4.816;2023-02-08T02:15:26;103867.0;;;0.38;97.2
37420;BME280;47344;52.374;4.816;2023-02-08T02:17:03;103872.0;;;0.33;97.77
37420;BME280;47344;52.374;4.816;2023-02-08T02:18:39;103870.0;;;0.52;97.57
37420;BME280;47344;52.374;4.816;2023-02-08T02:20:21;103869.0;;;0.5;97.28
37420;BME280;47344;52.374;4.816;2023-02-08T02:24:16;103872.0;;;0.51;97.15
37420;BME280;47344;52.374;4.816;2023-02-08T02:27:12;103868.0;;;0.5;97.43
37420;BME280;47344;52.374;4.816;2023-02-08T02:33:17;103858.99999999999;;;0.75;96.54
37420;BME280;47344;52.374;4.816;2023-02-08T02:35:55;103864.00000000001;;;0.71;96.61
37420;BME280;47344;52.374;4.816;2023-02-08T02:37:47;103863.00000000001;;;0.53;96.8
37420;BME280;47344;52.374;4.816;2023-02-08T02:39:36;103858.99999999999;;;0.76;96.49
37420;BME280;47344;52.374;4.816;2023-02-08T02:43:44;103857.0;;;0.92;95.97
37420;BME280;47344;52.374;4.816;2023-02-08T02:45:26;103857.0;;;1.03;95.07
37420;BME280;47344;52.374;4.816;2023-02-08T02:48:58;103866.00000000001;;;1.05;95.15
37420;BME280;47344;52.374;4.816;2023-02-08T02:50:41;103866.00000000001;;;0.8;95.38
37420;BME280;47344;52.374;4.816;2023-02-08T02:52:24;103858.0;;;0.74;96.23
37420;BME280;47344;52.374;4.816;2023-02-08T02:54:07;103857.0;;;0.8;95.86
37420;BME280;47344;52.374;4.816;2023-02-08T02:57:32;103853.0;;;0.71;96.22
37420;BME280;47344;52.374;4.816;2023-02-08T02:59:10;103843.0;;;0.68;96.31
37420;BME280;47344;52.374;4.816;2023-02-08T03:00:51;103845.0;;;0.66;97.0
37420;BME280;47344;52.374;4.816;2023-02-08T03:02:29;103845.0;;;0.72;96.86
37420;BME280;47344;52.374;4.816;2023-02-08T03:05:49;103849.0;;;0.78;96.69
37420;BME280;47344;52.374;4.816;2023-02-08T03:07:49;103848.0;;;0.79;96.46
37420;BME280;47344;52.374;4.816;2023-02-08T03:09:48;103847.0;;;0.74;96.63
37420;BME280;47344;52.374;4.816;2023-02-08T03:11:36;103853.0;;;0.78;96.47
37420;BME280;47344;52.374;4.816;2023-02-08T03:13:24;103854.0;;;0.88;96.53
37420;BME280;47344;52.374;4.816;2023-02-08T03:15:15;103852.0;;;0.84;95.97
37420;BME280;47344;52.374;4.816;2023-02-08T03:17:08;103849.0;;;0.96;96.03
37420;BME280;47344;52.374;4.816;2023-02-08T03:19:03;103854.0;;;0.81;96.16
37420;BME280;47344;52.374;4.816;2023-02-08T03:22:35;103852.0;;;0.82;95.33
37420;BME280;47344;52.374;4.816;2023-02-08T03:24:24;103849.0;;;0.69;95.98
37420;BME280;47344;52.374;4.816;2023-02-08T03:26:06;103853.0;;;0.64;95.08
37420;BME280;47344;52.374;4.816;2023-02-08T03:28:00;103844.0;;;0.44;95.92
37420;BME280;47344;52.374;4.816;2023-02-08T03:29:44;103846.0;;;0.4;96.17
37420;BME280;47344;52.374;4.816;2023-02-08T03:31:32;103843.0;;;0.4;96.28
37420;BME280;47344;52.374;4.816;2023-02-08T03:34:57;103842.0;;;0.52;96.04
37420;BME280;47344;52.374;4.816;2023-02-08T03:36:41;103833.99999999999;;;0.54;96.05
37420;BME280;47344;52.374;4.816;2023-02-08T03:38:26;103828.0;;;0.47;95.92
37420;BME280;47344;52.374;4.816;2023-02-08T03:40:09;103834.99999999999;;;0.36;96.16
37420;BME280;47344;52.374;4.816;2023-02-08T03:43:30;103833.0;;;0.41;96.32
37420;BME280;47344;52.374;4.816;2023-02-08T03:45:15;103838.00000000001;;;0.51;95.51
37420;BME280;47344;52.374;4.816;2023-02-08T03:46:57;103840.00000000001;;;0.26;95.73
37420;BME280;47344;52.374;4.816;2023-02-08T03:48:38;103842.0;;;0.22;96.31
37420;BME280;47344;52.374;4.816;2023-02-08T03:50:19;103839.00000000001;;;0.18;96.13
37420;BME280;47344;52.374;4.816;2023-02-08T03:53:40;103833.99999999999;;;0.25;96.03
37420;BME280;47344;52.374;4.816;2023-02-08T03:55:21;103829.0;;;0.24;95.71
37420;BME280;47344;52.374;4.816;2023-02-08T03:57:04;103831.0;;;0.19;96.04
37420;BME280;47344;52.374;4.816;2023-02-08T03:58:49;103832.0;;;0.19;96.12
37420;BME280;47344;52.374;4.816;2023-02-08T04:02:18;103833.0;;;0.31;95.5
37420;BME280;47344;52.374;4.816;2023-02-08T04:03:56;103839.00000000001;;;0.23;95.5
37420;BME280;47344;52.374;4.816;2023-02-08T04:05:34;103847.0;;;0.26;94.83
37420;BME280;47344;52.374;4.816;2023-02-08T04:07:11;103834.99999999999;;;0.13;95.17
37420;BME280;47344;52.374;4.816;2023-02-08T04:10:26;103831.0;;;0.0;96.73
37420;BME280;47344;52.374;4.816;2023-02-08T04:12:03;103833.0;;;-0.07;96.95
37420;BME280;47344;52.374;4.816;2023-02-08T04:13:40;103841.00000000001;;;-0.03;97.05
37420;BME280;47344;52.374;4.816;2023-02-08T04:16:53;103843.0;;;0.03;96.04
37420;BME280;47344;52.374;4.816;2023-02-08T04:18:30;103832.0;;;0.12;96.09
37420;BME280;47344;52.374;4.816;2023-02-08T04:20:07;103828.0;;;0.0;95.83
37420;BME280;47344;52.374;4.816;2023-02-08T04:21:44;103831.0;;;0.15;95.69
37420;BME280;47344;52.374;4.816;2023-02-08T04:24:56;103820.0;;;0.12;95.65
37420;BME280;47344;52.374;4.816;2023-02-08T04:26:34;103827.0;;;0.02;95.88
37420;BME280;47344;52.374;4.816;2023-02-08T04:28:11;103820.0;;;-0.07;96.58
37420;BME280;47344;52.374;4.816;2023-02-08T04:31:23;103817.0;;;0.02;96.45
37420;BME280;47344;52.374;4.816;2023-02-08T04:32:59;103817.0;;;0.08;96.2
37420;BME280;47344;52.374;4.816;2023-02-08T04:34:35;103815.00000000001;;;0.08;95.95
37420;BME280;47344;52.374;4.816;2023-02-08T04:37:47;103805.0;;;0.19;95.42
37420;BME280;47344;52.374;4.816;2023-02-08T04:39:24;103799.0;;;0.18;95.31
37420;BME280;47344;52.374;4.816;2023-02-08T04:41:00;103797.0;;;0.24;95.21
37420;BME280;47344;52.374;4.816;2023-02-08T04:42:36;103801.0;;;0.29;94.98
37420;BME280;47344;52.374;4.816;2023-02-08T04:45:50;103808.99999999999;;;0.39;94.77
37420;BME280;47344;52.374;4.816;2023-02-08T04:47:27;103816.00000000001;;;0.42;94.63
37420;BME280;47344;52.374;4.816;2023-02-08T04:49:03;103819.0;;;0.44;94.18
37420;BME280;47344;52.374;4.816;2023-02-08T04:52:17;103819.0;;;0.3;94.58
37420;BME280;47344;52.374;4.816;2023-02-08T04:53:53;103814.00000000001;;;0.24;94.69
37420;BME280;47344;52.374;4.816;2023-02-08T04:55:29;103807.0;;;0.42;94.08
37420;BME280;47344;52.374;4.816;2023-02-08T04:58:41;103809.99999999999;;;0.49;93.64
37420;BME280;47344;52.374;4.816;2023-02-08T05:00:18;103815.00000000001;;;0.52;93.64
37420;BME280;47344;52.374;4.816;2023-02-08T05:01:54;103809.99999999999;;;0.7;93.19
37420;BME280;47344;52.374;4.816;2023-02-08T05:03:30;103809.99999999999;;;0.65;92.83
37420;BME280;47344;52.374;4.816;2023-02-08T05:06:44;103809.99999999999;;;0.64;92.7
37420;BME280;47344;52.374;4.816;2023-02-08T05:08:20;103805.0;;;0.36;92.72
37420;BME280;47344;52.374;4.816;2023-02-08T05:09:56;103802.0;;;0.45;93.18
37420;BME280;47344;52.374;4.816;2023-02-08T05:13:08;103805.0;;;0.54;92.57
37420;BME280;47344;52.374;4.816;2023-02-08T05:14:44;103806.0;;;0.49;91.89
37420;BME280;47344;52.374;4.816;2023-02-08T05:16:20;103803.0;;;0.47;92.02
37420;BME280;47344;52.374;4.816;2023-02-08T05:19:33;103803.0;;;0.42;92.24
37420;BME280;47344;52.374;4.816;2023-02-08T05:21:09;103799.0;;;0.46;92.28
37420;BME280;47344;52.374;4.816;2023-02-08T05:22:46;103803.0;;;0.47;91.32
37420;BME280;47344;52.374;4.816;2023-02-08T05:24:22;103804.0;;;0.35;91.63
37420;BME280;47344;52.374;4.816;2023-02-08T05:27:40;103799.0;;;0.22;91.88
37420;BME280;47344;52.374;4.816;2023-02-08T05:29:18;103801.0;;;0.08;92.14
37420;BME280;47344;52.374;4.816;2023-02-08T05:30:53;103793.0;;;0.29;92.0
37420;BME280;47344;52.374;4.816;2023-02-08T05:34:06;103796.0;;;0.1;92.04
37420;BME280;47344;52.374;4.816;2023-02-08T05:35:43;103792.0;;;0.17;92.2
37420;BME280;47344;52.374;4.816;2023-02-08T05:37:19;103797.0;;;0.17;91.67
37420;BME280;47344;52.374;4.816;2023-02-08T05:40:32;103798.0;;;0.17;91.68
37420;BME280;47344;52.374;4.816;2023-02-08T05:42:09;103802.0;;;0.31;91.13
37420;BME280;47344;52.374;4.816;2023-02-08T05:43:45;103791.00000000001;;;0.39;90.78
37420;BME280;47344;52.374;4.816;2023-02-08T05:45:21;103796.0;;;0.49;90.38
37420;BME280;47344;52.374;4.816;2023-02-08T05:48:33;103784.99999999999;;;0.46;90.47
37420;BME280;47344;52.374;4.816;2023-02-08T05:50:10;103792.0;;;0.56;90.15
37420;BME280;47344;52.374;4.816;2023-02-08T05:51:46;103792.0;;;0.58;89.86
37420;BME280;47344;52.374;4.816;2023-02-08T05:54:59;103792.0;;;0.65;89.77
37420;BME280;47344;52.374;4.816;2023-02-08T05:56:36;103791.00000000001;;;0.59;89.63
37420;BME280;47344;52.374;4.816;2023-02-08T05:58:12;103793.0;;;0.54;89.45
37420;BME280;47344;52.374;4.816;2023-02-08T06:01:24;103789.00000000001;;;0.43;89.53
37420;BME280;47344;52.374;4.816;2023-02-08T06:03:00;103786.99999999999;;;0.41;89.88
37420;BME280;47344;52.374;4.816;2023-02-08T06:04:36;103792.0;;;0.5;89.7
37420;BME280;47344;52.374;4.816;2023-02-08T06:06:13;103783.99999999999;;;0.51;89.35
37420;BME280;47344;52.374;4.816;2023-02-08T06:09:25;103795.0;;;0.57;89.35
37420;BME280;47344;52.374;4.816;2023-02-08T06:11:01;103795.0;;;0.38;89.29
37420;BME280;47344;52.374;4.816;2023-02-08T06:12:37;103793.0;;;0.47;89.48
37420;BME280;47344;52.374;4.816;2023-02-08T06:15:49;103794.0;;;0.39;89.62
37420;BME280;47344;52.374;4.816;2023-02-08T06:17:26;103795.0;;;0.56;89.32
37420;BME280;47344;52.374;4.816;2023-02-08T06:19:03;103797.0;;;0.54;89.15
37420;BME280;47344;52.374;4.816;2023-02-08T06:22:15;103801.0;;;0.62;88.98
37420;BME280;47344;52.374;4.816;2023-02-08T06:23:52;103798.0;;;0.58;88.96
37420;BME280;47344;52.374;4.816;2023-02-08T06:25:28;103794.0;;;0.74;88.84
37420;BME280;47344;52.374;4.816;2023-02-08T06:28:40;103795.0;;;0.77;88.45
37420;BME280;47344;52.374;4.816;2023-02-08T06:30:17;103792.0;;;0.81;88.27
37420;BME280;47344;52.374;4.816;2023-02-08T06:31:54;103789.00000000001;;;0.71;87.9
37420;BME280;47344;52.374;4.816;2023-02-08T06:33:30;103788.00000000001;;;0.71;87.94
37420;BME280;47344;52.374;4.816;2023-02-08T06:36:44;103782.0;;;0.67;88.05
37420;BME280;47344;52.374;4.816;2023-02-08T06:38:20;103786.99999999999;;;0.72;88.43
37420;BME280;47344;52.374;4.816;2023-02-08T06:39:58;103778.0;;;0.66;88.2
37420;BME280;47344;52.374;4.816;2023-02-08T06:43:10;103784.99999999999;;;0.67;88.21
37420;BME280;47344;52.374;4.816;2023-02-08T06:44:48;103783.0;;;0.71;88.15
37420;BME280;47344;52.374;4.816;2023-02-08T06:46:25;103783.99999999999;;;0.76;87.86
37420;BME280;47344;52.374;4.816;2023-02-08T06:49:37;103782.0;;;0.81;87.65
37420;BME280;47344;52.374;4.816;2023-02-08T06:51:13;103790.00000000001;;;0.73;87.55
37420;BME280;47344;52.374;4.816;2023-02-08T06:52:49;103781.0;;;0.78;87.5
37420;BME280;47344;52.374;4.816;2023-02-08T06:54:25;103781.0;;;0.74;87.37
37420;BME280;47344;52.374;4.816;2023-02-08T06:57:39;103783.99999999999;;;0.74;87.46
37420;BME280;47344;52.374;4.816;2023-02-08T06:59:15;103772.0;;;0.74;87.3
37420;BME280;47344;52.374;4.816;2023-02-08T07:00:51;103773.0;;;0.68;87.3
37420;BME280;47344;52.374;4.816;2023-02-08T07:04:04;103771.0;;;0.75;86.81
37420;BME280;47344;52.374;4.816;2023-02-08T07:07:17;103772.0;;;0.79;86.46
37420;BME280;47344;52.374;4.816;2023-02-08T07:10:30;103773.0;;;0.94;86.12
37420;BME280;47344;52.374;4.816;2023-02-08T07:12:08;103775.0;;;0.98;85.63
37420;BME280;47344;52.374;4.816;2023-02-08T07:13:45;103778.0;;;0.98;85.29
37420;BME280;47344;52.374;4.816;2023-02-08T07:15:22;103778.0;;;0.95;84.85
37420;BME280;47344;52.374;4.816;2023-02-08T07:18:35;103783.0;;;0.91;84.79
37420;BME280;47344;52.374;4.816;2023-02-08T07:20:12;103780.0;;;0.86;84.73
37420;BME280;47344;52.374;4.816;2023-02-08T07:21:49;103777.0;;;0.83;84.77
37420;BME280;47344;52.374;4.816;2023-02-08T07:25:03;103771.0;;;0.83;84.59
37420;BME280;47344;52.374;4.816;2023-02-08T07:26:40;103779.0;;;0.79;84.53
37420;BME280;47344;52.374;4.816;2023-02-08T07:28:16;103774.0;;;0.8;84.86
37420;BME280;47344;52.374;4.816;2023-02-08T07:29:53;103774.0;;;0.93;84.49
37420;BME280;47344;52.374;4.816;2023-02-08T07:33:05;103775.0;;;0.87;84.24
37420;BME280;47344;52.374;4.816;2023-02-08T07:34:41;103770.0;;;0.8;84.21
37420;BME280;47344;52.374;4.816;2023-02-08T07:36:17;103770.0;;;0.8;84.03
37420;BME280;47344;52.374;4.816;2023-02-08T07:39:30;103772.0;;;0.87;84.22
37420;BME280;47344;52.374;4.816;2023-02-08T07:41:08;103769.0;;;1.04;83.98
37420;BME280;47344;52.374;4.816;2023-02-08T07:42:47;103766.00000000001;;;1.13;83.57
37420;BME280;47344;52.374;4.816;2023-02-08T07:47:41;103772.0;;;1.26;83.17
37420;BME280;47344;52.374;4.816;2023-02-08T07:49:17;103767.0;;;1.35;82.89
37420;BME280;47344;52.374;4.816;2023-02-08T07:50:53;103771.0;;;1.41;82.11
37420;BME280;47344;52.374;4.816;2023-02-08T07:54:05;103766.00000000001;;;1.43;81.62
37420;BME280;47344;52.374;4.816;2023-02-08T07:55:44;103767.0;;;1.42;81.69
37420;BME280;47344;52.374;4.816;2023-02-08T07:57:21;103769.0;;;1.5;81.66
37420;BME280;47344;52.374;4.816;2023-02-08T08:00:33;103771.0;;;1.48;81.28
37420;BME280;47344;52.374;4.816;2023-02-08T08:02:09;103769.0;;;1.52;81.52
37420;BME280;47344;52.374;4.816;2023-02-08T08:03:46;103773.0;;;1.54;80.91
37420;BME280;47344;52.374;4.816;2023-02-08T08:06:59;103771.0;;;1.48;81.13
37420;BME280;47344;52.374;4.816;2023-02-08T08:08:35;103765.00000000001;;;1.58;81.33
37420;BME280;47344;52.374;4.816;2023-02-08T08:10:11;103764.00000000001;;;1.69;80.7
37420;BME280;47344;52.374;4.816;2023-02-08T08:11:47;103763.00000000001;;;1.66;80.87
37420;BME280;47344;52.374;4.816;2023-02-08T08:15:00;103766.00000000001;;;1.75;80.66
37420;BME280;47344;52.374;4.816;2023-02-08T08:16:36;103765.00000000001;;;1.77;80.33
37420;BME280;47344;52.374;4.816;2023-02-08T08:18:13;103761.99999999999;;;1.86;80.19
37420;BME280;47344;52.374;4.816;2023-02-08T08:21:26;103763.00000000001;;;1.89;79.75
37420;BME280;47344;52.374;4.816;2023-02-08T08:23:02;103767.0;;;1.91;79.87
37420;BME280;47344;52.374;4.816;2023-02-08T08:24:38;103761.99999999999;;;1.87;79.86
37420;BME280;47344;52.374;4.816;2023-02-08T08:27:57;103761.99999999999;;;1.88;79.3
37420;BME280;47344;52.374;4.816;2023-02-08T08:29:33;103753.0;;;1.86;79.41
37420;BME280;47344;52.374;4.816;2023-02-08T08:31:13;103757.0;;;1.86;79.83
37420;BME280;47344;52.374;4.816;2023-02-08T08:32:50;103755.0;;;1.76;79.8
37420;BME280;47344;52.374;4.816;2023-02-08T08:36:06;103758.0;;;1.75;79.8
37420;BME280;47344;52.374;4.816;2023-02-08T08:37:42;103748.0;;;1.81;79.91
37420;BME280;47344;52.374;4.816;2023-02-08T08:39:18;103750.0;;;1.89;79.61
37420;BME280;47344;52.374;4.816;2023-02-08T08:42:30;103752.0;;;1.88;79.8
37420;BME280;47344;52.374;4.816;2023-02-08T08:44:08;103748.0;;;1.87;79.23
37420;BME280;47344;52.374;4.816;2023-02-08T08:45:44;103747.0;;;1.95;79.48
37420;BME280;47344;52.374;4.816;2023-02-08T08:47:20;103746.0;;;1.99;79.25
37420;BME280;47344;52.374;4.816;2023-02-08T08:50:33;103752.0;;;1.97;79.24
37420;BME280;47344;52.374;4.816;2023-02-08T08:52:09;103757.0;;;2.02;78.8
37420;BME280;47344;52.374;4.816;2023-02-08T08:53:47;103750.0;;;2.04;78.98
37420;BME280;47344;52.374;4.816;2023-02-08T08:57:01;103747.0;;;2.13;78.86
37420;BME280;47344;52.374;4.816;2023-02-08T08:58:38;103751.0;;;2.06;78.58
37420;BME280;47344;52.374;4.816;2023-02-08T09:00:15;103757.0;;;2.02;78.55
37420;BME280;47344;52.374;4.816;2023-02-08T09:03:28;103748.0;;;2.12;78.3
37420;BME280;47344;52.374;4.816;2023-02-08T09:05:07;103742.0;;;2.16;78.14
37420;BME280;47344;52.374;4.816;2023-02-08T09:06:43;103745.0;;;2.17;77.81
37420;BME280;47344;52.374;4.816;2023-02-08T09:08:19;103746.0;;;2.23;77.37
37420;BME280;47344;52.374;4.816;2023-02-08T09:11:32;103743.0;;;2.21;77.52
37420;BME280;47344;52.374;4.816;2023-02-08T09:13:08;103751.0;;;2.25;77.69
37420;BME280;47344;52.374;4.816;2023-02-08T09:14:45;103752.0;;;2.35;77.61
37420;BME280;47344;52.374;4.816;2023-02-08T09:18:00;103753.0;;;2.39;77.49
37420;BME280;47344;52.374;4.816;2023-02-08T09:19:36;103763.00000000001;;;2.46;77.19
37420;BME280;47344;52.374;4.816;2023-02-08T09:21:14;103759.99999999999;;;2.52;76.72
37420;BME280;47344;52.374;4.816;2023-02-08T09:22:52;103764.00000000001;;;2.42;76.59
37420;BME280;47344;52.374;4.816;2023-02-08T09:26:08;103764.00000000001;;;2.31;77.03
37420;BME280;47344;52.374;4.816;2023-02-08T09:27:45;103758.0;;;2.39;76.64
37420;BME280;47344;52.374;4.816;2023-02-08T09:29:21;103759.99999999999;;;2.4;76.47
37420;BME280;47344;52.374;4.816;2023-02-08T09:32:43;103769.0;;;2.39;76.17
37420;BME280;47344;52.374;4.816;2023-02-08T09:34:19;103767.0;;;2.36;76.36
37420;BME280;47344;52.374;4.816;2023-02-08T09:35:56;103761.99999999999;;;2.48;76.22
37420;BME280;47344;52.374;4.816;2023-02-08T09:37:33;103766.00000000001;;;2.39;76.41
37420;BME280;47344;52.374;4.816;2023-02-08T09:40:57;103767.0;;;2.54;75.94
37420;BME280;47344;52.374;4.816;2023-02-08T09:42:52;103764.00000000001;;;2.48;76.23
37420;BME280;47344;52.374;4.816;2023-02-08T09:44:43;103759.99999999999;;;2.48;75.61
37420;BME280;47344;52.374;4.816;2023-02-08T09:46:28;103758.99999999999;;;2.54;75.55
37420;BME280;47344;52.374;4.816;2023-02-08T09:48:14;103759.99999999999;;;2.52;74.78
37420;BME280;47344;52.374;4.816;2023-02-08T09:51:43;103764.00000000001;;;2.52;75.3
37420;BME280;47344;52.374;4.816;2023-02-08T09:53:27;103767.0;;;2.56;75.02
37420;BME280;47344;52.374;4.816;2023-02-08T09:55:16;103768.0;;;2.68;74.95
37420;BME280;47344;52.374;4.816;2023-02-08T09:57:11;103772.0;;;2.75;74.78
37420;BME280;47344;52.374;4.816;2023-02-08T09:58:54;103776.0;;;2.74;74.47
37420;BME280;47344;52.374;4.816;2023-02-08T10:00:35;103774.0;;;2.8;73.55
37420;BME280;47344;52.374;4.816;2023-02-08T10:04:00;103781.0;;;2.71;73.52
37420;BME280;47344;52.374;4.816;2023-02-08T10:05:41;103784.99999999999;;;2.79;73.02
37420;BME280;47344;52.374;4.816;2023-02-08T10:07:17;103781.0;;;2.9;72.74
37420;BME280;47344;52.374;4.816;2023-02-08T10:08:53;103783.0;;;2.94;72.19
37420;BME280;47344;52.374;4.816;2023-02-08T10:12:25;103788.00000000001;;;2.98;72.08
37420;BME280;47344;52.374;4.816;2023-02-08T10:14:21;103781.0;;;3.07;72.0
37420;BME280;47344;52.374;4.816;2023-02-08T10:16:22;103791.00000000001;;;3.16;71.22
37420;BME280;47344;52.374;4.816;2023-02-08T10:18:21;103791.00000000001;;;3.24;70.88
37420;BME280;47344;52.374;4.816;2023-02-08T10:20:15;103791.00000000001;;;3.37;70.13
37420;BME280;47344;52.374;4.816;2023-02-08T10:22:03;103790.00000000001;;;3.38;69.24
37420;BME280;47344;52.374;4.816;2023-02-08T10:23:56;103789.00000000001;;;3.34;69.25
37420;BME280;47344;52.374;4.816;2023-02-08T10:25:45;103790.00000000001;;;3.4;69.37
37420;BME280;47344;52.374;4.816;2023-02-08T10:29:34;103781.0;;;3.48;69.47
37420;BME280;47344;52.374;4.816;2023-02-08T10:32:58;103782.0;;;3.58;69.23
37420;BME280;47344;52.374;4.816;2023-02-08T10:34:42;103783.0;;;3.67;68.58
37420;BME280;47344;52.374;4.816;2023-02-08T10:36:24;103783.99999999999;;;3.76;68.27
37420;BME280;47344;52.374;4.816;2023-02-08T10:40:06;103781.0;;;3.86;67.99
37420;BME280;47344;52.374;4.816;2023-02-08T10:41:53;103781.0;;;3.78;67.72
37420;BME280;47344;52.374;4.816;2023-02-08T10:43:37;103776.0;;;3.82;67.58
37420;BME280;47344;52.374;4.816;2023-02-08T10:45:21;103777.0;;;3.89;67.31
37420;BME280;47344;52.374;4.816;2023-02-08T10:47:07;103771.0;;;4.03;67.63
37420;BME280;47344;52.374;4.816;2023-02-08T10:48:58;103758.0;;;4.21;67.17
37420;BME280;47344;52.374;4.816;2023-02-08T10:52:18;103756.0;;;4.2;66.94
37420;BME280;47344;52.374;4.816;2023-02-08T10:53:55;103746.0;;;4.2;66.52
37420;BME280;47344;52.374;4.816;2023-02-08T10:55:34;103749.0;;;4.36;66.81
37420;BME280;47344;52.374;4.816;2023-02-08T10:57:15;103751.0;;;4.49;65.99
37420;BME280;47344;52.374;4.816;2023-02-08T11:00:36;103746.0;;;4.55;65.27
37420;BME280;47344;52.374;4.816;2023-02-08T11:02:20;103741.00000000001;;;4.74;65.1
37420;BME280;47344;52.374;4.816;2023-02-08T11:04:02;103738.00000000001;;;4.74;64.97
37420;BME280;47344;52.374;4.816;2023-02-08T11:05:40;103741.00000000001;;;4.84;63.74
37420;BME280;47344;52.374;4.816;2023-02-08T11:08:56;103734.99999999999;;;4.93;63.06
37420;BME280;47344;52.374;4.816;2023-02-08T11:10:33;103736.99999999999;;;5.07;62.73